Time;durP1;ratioP1;P1;durP2;ratioP2;P2;SDS_P1;SDS_P2;PMS_P1;PMS_P2;Temp;Humidity;BMP_temperature;BMP_pressure;BME280_temperature;BME280_humidity;BME280_pressure;Samples;Min_cycle;Max_cycle;Signal;HPM_P1;HPM_P2
2023/01/14 00:01:30;;;;;;;18.83;2.90;;;;;;;6.08;100.00;101476.19;5052527;28;20311;-77
2023/01/14 00:03:56;;;;;;;26.50;2.83;;;;;;;6.07;100.00;101473.63;5053328;28;20124;-76
2023/01/14 00:06:24;;;;;;;16.30;2.58;;;;;;;5.97;100.00;101476.84;5052437;28;20112;-76
2023/01/14 00:08:54;;;;;;;20.58;2.70;;;;;;;5.95;100.00;101467.28;5052475;28;20465;-75
2023/01/14 00:11:45;;;;;;;23.87;2.97;;;;;;;5.91;100.00;101471.03;5051455;28;20075;-75
2023/01/14 00:14:05;;;;;;;19.48;3.38;;;;;;;5.83;100.00;101463.59;5052604;28;20087;-76
2023/01/14 00:16:31;;;;;;;22.83;2.83;;;;;;;5.87;100.00;101465.09;5052844;28;20060;-75
2023/01/14 00:18:56;;;;;;;22.17;3.70;;;;;;;5.84;100.00;101475.84;5051208;28;20084;-75
2023/01/14 00:21:21;;;;;;;18.35;2.75;;;;;;;5.82;100.00;101472.44;5052908;28;20033;-75
2023/01/14 00:23:47;;;;;;;20.88;3.22;;;;;;;5.84;100.00;101475.84;5052881;28;20029;-75
2023/01/14 00:26:14;;;;;;;19.83;3.10;;;;;;;5.87;100.00;101474.81;5052733;28;20087;-76
2023/01/14 00:28:41;;;;;;;17.15;2.83;;;;;;;5.94;100.00;101470.84;5052207;28;20033;-75
2023/01/14 00:31:13;;;;;;;27.73;3.72;;;;;;;5.96;100.00;101467.19;5052700;28;20029;-79
2023/01/14 00:33:40;;;;;;;26.83;4.28;;;;;;;5.94;100.00;101466.44;5053377;28;20037;-75
2023/01/14 00:36:08;;;;;;;22.50;3.20;;;;;;;5.89;100.00;101475.56;5052379;28;20035;-75
2023/01/14 00:38:34;;;;;;;17.15;3.10;;;;;;;5.83;100.00;101479.44;5053108;28;20412;-76
2023/01/14 00:41:01;;;;;;;27.05;3.88;;;;;;;5.77;100.00;101485.94;5052520;28;20120;-75
2023/01/14 00:43:28;;;;;;;23.05;2.92;;;;;;;5.74;100.00;101477.34;5052178;28;20520;-76
2023/01/14 00:45:53;;;;;;;30.83;4.05;;;;;;;5.69;100.00;101488.19;5052719;28;20530;-75
2023/01/14 00:48:18;;;;;;;27.00;3.47;;;;;;;5.63;100.00;101486.75;5052487;28;20037;-75
2023/01/14 00:50:44;;;;;;;25.95;4.45;;;;;;;5.58;100.00;101483.56;5052829;28;20484;-75
2023/01/14 00:53:09;;;;;;;22.15;3.08;;;;;;;5.50;100.00;101482.31;5052619;28;20480;-75
2023/01/14 00:55:34;;;;;;;20.83;3.40;;;;;;;5.54;100.00;101484.66;5052343;28;20074;-75
2023/01/14 00:58:00;;;;;;;26.23;3.60;;;;;;;5.47;100.00;101478.06;5052682;28;20040;-75
2023/01/14 01:00:25;;;;;;;20.88;3.50;;;;;;;5.42;100.00;101470.41;5052447;28;20342;-75
2023/01/14 01:02:50;;;;;;;22.88;3.67;;;;;;;5.43;100.00;101464.19;5052147;28;20047;-75
2023/01/14 01:05:16;;;;;;;27.63;3.78;;;;;;;5.45;100.00;101458.81;5055453;28;20520;-76
2023/01/14 01:07:42;;;;;;;25.90;4.05;;;;;;;5.37;100.00;101456.63;5056391;28;20392;-75
2023/01/14 01:10:08;;;;;;;21.77;4.65;;;;;;;5.36;100.00;101454.94;5055960;28;20037;-75
2023/01/14 01:12:33;;;;;;;27.33;3.97;;;;;;;5.32;100.00;101448.13;5056170;28;20032;-75
2023/01/14 01:14:59;;;;;;;19.55;3.25;;;;;;;5.33;100.00;101457.75;5056226;28;20051;-75
2023/01/14 01:17:24;;;;;;;29.55;4.38;;;;;;;5.29;100.00;101441.22;5055964;28;20083;-75
2023/01/14 01:19:50;;;;;;;26.95;3.80;;;;;;;5.23;100.00;101440.75;5055731;28;20037;-75
2023/01/14 01:22:16;;;;;;;18.95;3.33;;;;;;;5.14;100.00;101446.59;5055883;28;20554;-76
2023/01/14 01:24:42;;;;;;;23.08;2.83;;;;;;;5.11;100.00;101448.44;5055993;28;20033;-76
2023/01/14 01:27:07;;;;;;;19.50;4.15;;;;;;;5.16;100.00;101440.25;5056098;28;20072;-75
2023/01/14 01:29:32;;;;;;;18.70;3.00;;;;;;;5.20;100.00;101440.94;5055438;28;20148;-75
2023/01/14 01:31:58;;;;;;;22.95;3.85;;;;;;;5.19;100.00;101432.16;5056094;28;20033;-75
2023/01/14 01:34:23;;;;;;;23.58;3.50;;;;;;;5.12;100.00;101439.59;5054618;28;20041;-75
2023/01/14 01:36:49;;;;;;;25.90;3.60;;;;;;;5.09;100.00;101446.81;5055423;28;20401;-75
2023/01/14 01:39:14;;;;;;;17.05;3.28;;;;;;;5.05;100.00;101453.22;5055578;28;20033;-75
2023/01/14 01:41:39;;;;;;;20.70;3.30;;;;;;;4.99;100.00;101445.69;5055871;28;20033;-75
2023/01/14 01:44:27;;;;;;;22.90;3.83;;;;;;;4.89;100.00;101437.44;5055504;28;20040;-75
2023/01/14 01:46:53;;;;;;;19.50;3.53;;;;;;;4.83;100.00;101430.72;5055246;28;20554;-75
2023/01/14 01:49:24;;;;;;;20.20;3.58;;;;;;;4.75;100.00;101425.88;5053921;28;20041;-75
2023/01/14 01:51:59;;;;;;;23.08;3.78;;;;;;;4.66;100.00;101422.91;5056194;28;20024;-75
2023/01/14 01:54:28;;;;;;;20.30;3.90;;;;;;;4.59;100.00;101428.50;5055512;28;20045;-75
2023/01/14 01:56:55;;;;;;;19.83;3.78;;;;;;;4.63;100.00;101418.66;5055201;28;20033;-75
2023/01/14 01:59:24;;;;;;;19.67;3.28;;;;;;;4.58;100.00;101416.28;5055479;28;20056;-76
2023/01/14 02:01:52;;;;;;;27.38;4.18;;;;;;;4.50;100.00;101412.38;5055133;28;20036;-76
2023/01/14 02:04:18;;;;;;;28.48;4.55;;;;;;;4.40;100.00;101398.84;5055304;28;20551;-76
2023/01/14 02:06:43;;;;;;;17.48;2.80;;;;;;;4.34;100.00;101401.84;5055958;28;20052;-75
2023/01/14 02:09:10;;;;;;;31.67;3.58;;;;;;;4.28;100.00;101397.75;5055151;28;20033;-75
2023/01/14 02:12:06;;;;;;;20.83;3.30;;;;;;;4.23;100.00;101399.81;5054991;28;20036;-76
2023/01/14 02:15:10;;;;;;;24.50;3.85;;;;;;;4.20;100.00;101385.00;5054667;28;20041;-76
2023/01/14 02:18:00;;;;;;;26.15;3.92;;;;;;;4.15;100.00;101378.28;5054786;28;20024;-76
2023/01/14 02:20:35;;;;;;;22.45;3.58;;;;;;;4.13;100.00;101378.38;5055439;28;20137;-76
2023/01/14 02:23:19;;;;;;;25.15;3.65;;;;;;;4.20;100.00;101373.63;5054685;28;20033;-76
2023/01/14 02:26:09;;;;;;;24.52;3.22;;;;;;;4.23;100.00;101379.56;5054761;28;20029;-76
2023/01/14 02:29:12;;;;;;;29.90;3.63;;;;;;;4.20;100.00;101369.19;5053554;28;20025;-76
2023/01/14 02:31:58;;;;;;;21.92;3.45;;;;;;;4.18;100.00;101373.72;5054454;28;20108;-77
2023/01/14 02:34:43;;;;;;;27.52;4.10;;;;;;;4.13;100.00;101372.25;5054585;28;20029;-77
2023/01/14 02:37:13;;;;;;;22.73;3.65;;;;;;;4.05;100.00;101373.53;5054881;28;20033;-76
2023/01/14 02:39:59;;;;;;;26.08;3.05;;;;;;;4.03;100.00;101370.13;5054633;28;20037;-76
2023/01/14 02:45:24;;;;;;;24.20;3.10;;;;;;;3.94;100.00;101372.41;5054530;28;20040;-75
2023/01/14 02:47:51;;;;;;;29.20;4.32;;;;;;;3.94;100.00;101373.28;5054462;28;20029;-76
2023/01/14 02:50:18;;;;;;;16.52;3.08;;;;;;;3.92;100.00;101356.69;5053332;28;20147;-75
2023/01/14 02:52:44;;;;;;;21.95;3.63;;;;;;;3.96;100.00;101367.94;5053985;28;20029;-76
2023/01/14 02:55:37;;;;;;;35.40;3.47;;;;;;;3.97;100.00;101349.41;5054073;28;20060;-76
2023/01/14 02:58:11;;;;;;;27.13;3.88;;;;;;;3.96;100.00;101347.69;5051945;28;20095;-76
2023/01/14 03:01:11;;;;;;;24.50;3.72;;;;;;;4.01;100.00;101343.03;5054063;28;20053;-76
2023/01/14 03:03:55;;;;;;;21.92;3.40;;;;;;;4.01;100.00;101329.84;5053755;28;20031;-76
2023/01/14 03:06:24;;;;;;;24.02;3.63;;;;;;;3.99;100.00;101339.63;5053855;28;20029;-75
2023/01/14 03:08:55;;;;;;;18.98;3.25;;;;;;;3.98;100.00;101327.41;5053674;28;20330;-76
2023/01/14 03:11:23;;;;;;;26.02;4.43;;;;;;;3.96;100.00;101341.59;5053994;28;20043;-75
2023/01/14 03:14:00;;;;;;;29.67;4.05;;;;;;;3.97;100.00;101330.09;5053522;28;20112;-76
2023/01/14 03:16:44;;;;;;;27.52;4.05;;;;;;;4.02;100.00;101307.88;5053555;28;20102;-76
2023/01/14 03:19:20;;;;;;;26.83;3.50;;;;;;;4.06;100.00;101305.91;5053220;28;20035;-77
2023/01/14 03:21:52;;;;;;;21.60;3.50;;;;;;;4.07;100.00;101304.97;5053210;28;20055;-75
2023/01/14 03:24:36;;;;;;;30.23;4.72;;;;;;;4.10;100.00;101302.16;5052289;28;20403;-75
2023/01/14 03:27:11;;;;;;;20.95;3.47;;;;;;;4.10;100.00;101294.25;5053215;28;20064;-75
2023/01/14 03:29:42;;;;;;;24.83;4.43;;;;;;;4.10;100.00;101302.16;5053077;28;20105;-75
2023/01/14 03:32:13;;;;;;;32.17;4.80;;;;;;;4.12;100.00;101291.53;5053465;28;20039;-75
2023/01/14 03:34:45;;;;;;;28.75;4.25;;;;;;;4.13;100.00;101283.56;5053591;28;20040;-75
2023/01/14 03:37:14;;;;;;;26.10;4.40;;;;;;;4.09;100.00;101276.78;5052079;28;20519;-75
2023/01/14 03:39:44;;;;;;;33.53;4.88;;;;;;;4.07;100.00;101276.00;5053225;28;20028;-75
2023/01/14 03:42:18;;;;;;;19.30;4.45;;;;;;;4.10;100.00;101267.09;5053167;28;20108;-75
2023/01/14 03:45:18;;;;;;;35.85;3.83;;;;;;;4.08;100.00;101251.38;5053611;28;20029;-75
2023/01/14 03:47:45;;;;;;;29.15;4.65;;;;;;;4.08;100.00;101251.38;5043223;28;20084;-75
2023/01/14 03:50:13;;;;;;;26.05;4.03;;;;;;;4.05;100.00;101233.13;5052948;28;20033;-75
2023/01/14 03:52:45;;;;;;;25.50;4.15;;;;;;;4.08;100.00;101237.38;5052849;28;20064;-75
2023/01/14 03:55:57;;;;;;;29.85;4.30;;;;;;;4.08;100.00;101230.31;5053476;28;20039;-75
2023/01/14 03:58:28;;;;;;;40.20;4.97;;;;;;;4.11;100.00;101216.13;5052929;28;20413;-75
2023/01/14 04:00:58;;;;;;;34.97;5.38;;;;;;;4.13;100.00;101208.97;5053049;28;20056;-75
2023/01/14 04:03:26;;;;;;;30.02;4.57;;;;;;;4.17;100.00;101200.81;5052483;28;20425;-74
2023/01/14 04:05:53;;;;;;;30.40;4.88;;;;;;;4.22;100.00;101201.41;5052619;28;20021;-75
2023/01/14 04:08:24;;;;;;;37.30;5.57;;;;;;;4.22;100.00;101196.13;5053016;28;20106;-75
2023/01/14 04:10:50;;;;;;;31.38;5.00;;;;;;;4.24;100.00;101186.34;5052564;28;20060;-74
2023/01/14 04:16:01;;;;;;;34.78;4.57;;;;;;;4.32;100.00;101183.25;5052680;28;20048;-76
2023/01/14 04:18:26;;;;;;;31.23;5.13;;;;;;;4.38;100.00;101176.78;5052876;28;20048;-75
2023/01/14 04:20:52;;;;;;;34.08;5.35;;;;;;;4.44;100.00;101176.41;5052567;28;20087;-75
2023/01/14 04:23:17;;;;;;;41.05;4.88;;;;;;;4.46;100.00;101176.31;5052358;28;20087;-76
2023/01/14 04:25:42;;;;;;;36.90;4.32;;;;;;;4.47;100.00;101160.41;5052526;28;20119;-76
2023/01/14 04:28:08;;;;;;;39.30;5.40;;;;;;;4.52;100.00;101154.88;5052820;28;20389;-75
2023/01/14 04:30:33;;;;;;;27.17;4.32;;;;;;;4.52;100.00;101144.31;5052268;28;20125;-76
2023/01/14 04:32:59;;;;;;;33.38;4.72;;;;;;;4.54;100.00;101131.94;5052468;28;20094;-76
2023/01/14 04:35:24;;;;;;;31.20;5.22;;;;;;;4.60;100.00;101142.09;5052528;28;20436;-76
2023/01/14 04:37:51;;;;;;;33.10;4.75;;;;;;;4.64;100.00;101148.84;5052160;28;20477;-76
2023/01/14 04:40:17;;;;;;;37.35;5.05;;;;;;;4.71;100.00;101130.88;5054446;28;20393;-75
2023/01/14 04:42:43;;;;;;;32.67;5.72;;;;;;;4.74;100.00;101123.63;5056551;28;20024;-76
2023/01/14 04:45:08;;;;;;;42.38;5.15;;;;;;;4.73;100.00;101121.94;5056364;28;20029;-75
2023/01/14 04:47:34;;;;;;;32.10;4.88;;;;;;;4.74;100.00;101121.00;5055495;28;20060;-75
2023/01/14 04:50:30;;;;;;;29.20;4.97;;;;;;;4.80;100.00;101114.50;5056655;28;20535;-75
2023/01/14 04:52:45;;;;;;;31.15;4.30;;;;;;;4.82;100.00;101112.63;5056199;28;20223;-75
2023/01/14 04:55:10;;;;;;;34.65;4.93;;;;;;;4.83;100.00;101119.56;5056181;28;20056;-76
2023/01/14 04:57:35;;;;;;;30.67;4.03;;;;;;;4.87;100.00;101115.81;5056485;28;20039;-76
2023/01/14 05:00:01;;;;;;;27.88;4.40;;;;;;;4.91;100.00;101113.81;5056002;28;20418;-76
2023/01/14 05:02:26;;;;;;;29.50;4.18;;;;;;;4.93;100.00;101106.69;5056135;28;20032;-75
2023/01/14 05:04:51;;;;;;;27.13;4.60;;;;;;;4.90;100.00;101097.16;5056026;28;20029;-75
2023/01/14 05:07:17;;;;;;;29.92;4.13;;;;;;;4.89;100.00;101094.63;5056060;28;20082;-76
2023/01/14 05:09:42;;;;;;;37.53;5.53;;;;;;;4.84;100.00;101092.28;5038054;28;20112;-77
2023/01/14 05:12:08;;;;;;;31.65;4.38;;;;;;;4.84;100.00;101088.81;5056177;28;20033;-74
2023/01/14 05:14:34;;;;;;;29.15;4.40;;;;;;;4.86;100.00;101079.84;5056368;28;20033;-76
2023/01/14 05:17:00;;;;;;;25.17;3.63;;;;;;;4.89;100.00;101061.19;5056017;28;20033;-75
2023/01/14 05:19:25;;;;;;;31.10;4.05;;;;;;;4.92;100.00;101055.72;5054638;28;20598;-75
2023/01/14 05:21:51;;;;;;;22.60;3.92;;;;;;;4.93;100.00;101049.50;5055888;28;20402;-76
2023/01/14 05:24:16;;;;;;;30.23;4.47;;;;;;;4.93;100.00;101051.31;5055866;28;20040;-75
2023/01/14 05:26:42;;;;;;;32.15;4.38;;;;;;;4.91;100.00;101038.22;5056149;28;20033;-74
2023/01/14 05:29:07;;;;;;;24.38;3.88;;;;;;;4.91;100.00;101045.25;5055982;28;20033;-75
2023/01/14 05:31:33;;;;;;;23.20;4.32;;;;;;;4.87;100.00;101039.34;5055560;28;20039;-75
2023/01/14 05:33:59;;;;;;;25.17;3.55;;;;;;;4.84;100.00;101039.53;5054106;28;20033;-75
2023/01/14 05:36:25;;;;;;;24.90;3.75;;;;;;;4.79;100.00;101033.69;5055857;28;20040;-75
2023/01/14 05:38:50;;;;;;;27.83;4.43;;;;;;;4.76;100.00;101029.50;5055435;28;20112;-75
2023/01/14 05:41:15;;;;;;;26.98;4.05;;;;;;;4.75;100.00;101027.78;5055890;28;20376;-74
2023/01/14 05:46:25;;;;;;;22.80;4.07;;;;;;;4.70;100.00;101007.94;5056029;28;20155;-74
2023/01/14 05:48:50;;;;;;;27.23;4.47;;;;;;;4.68;100.00;100996.66;5054774;28;20033;-74
2023/01/14 05:51:15;;;;;;;15.90;3.63;;;;;;;4.64;100.00;100993.34;5037256;28;20037;-74
2023/01/14 05:53:41;;;;;;;23.35;3.78;;;;;;;4.62;100.00;100983.84;5053987;28;20037;-74
2023/01/14 05:56:07;;;;;;;24.60;3.58;;;;;;;4.61;100.00;100980.34;5054784;28;20450;-74
2023/01/14 05:58:33;;;;;;;26.02;3.92;;;;;;;4.57;100.00;100977.09;5055439;28;20050;-74
2023/01/14 06:06:38;;;;;;;21.50;3.85;;;;;;;4.52;100.00;100942.28;5055260;28;20397;-75
2023/01/14 06:09:09;;;;;;;20.33;3.40;;;;;;;4.51;100.00;100937.94;5054842;28;20029;-74
2023/01/14 06:11:35;;;;;;;30.10;4.18;;;;;;;4.51;100.00;100927.41;5054914;28;20539;-74
2023/01/14 06:14:02;;;;;;;23.92;3.38;;;;;;;4.50;100.00;100922.22;5055124;28;20119;-74
2023/01/14 06:16:32;;;;;;;31.25;3.92;;;;;;;4.47;100.00;100923.25;5054952;28;20037;-74
2023/01/14 06:18:58;;;;;;;27.92;3.97;;;;;;;4.47;100.00;100907.47;5055495;28;20044;-73
2023/01/14 06:21:28;;;;;;;29.83;5.57;;;;;;;4.45;100.00;100893.53;5054853;28;20036;-73
2023/01/14 06:23:54;;;;;;;20.65;4.05;;;;;;;4.48;100.00;100889.84;5054919;28;20029;-74
2023/01/14 06:26:21;;;;;;;21.70;3.20;;;;;;;4.46;100.00;100886.47;5054830;28;20025;-73
2023/01/14 06:28:46;;;;;;;24.88;3.85;;;;;;;4.47;100.00;100880.28;5055273;28;20029;-73
2023/01/14 06:31:13;;;;;;;31.73;4.38;;;;;;;4.50;100.00;100867.72;5054758;28;20028;-73
2023/01/14 06:33:39;;;;;;;24.02;4.00;;;;;;;4.51;100.00;100863.28;5055095;28;20044;-73
2023/01/14 06:36:06;;;;;;;28.08;3.67;;;;;;;4.49;100.00;100850.22;5054589;28;20048;-74
2023/01/14 06:38:31;;;;;;;22.40;3.38;;;;;;;4.46;100.00;100852.22;5054608;28;20035;-74
2023/01/14 06:41:01;;;;;;;22.13;2.97;;;;;;;4.46;100.00;100826.72;5053791;28;20120;-74
2023/01/14 06:43:26;;;;;;;16.25;3.20;;;;;;;4.47;100.00;100827.56;5055026;28;20104;-73
2023/01/14 06:45:53;;;;;;;20.15;3.30;;;;;;;4.44;100.00;100828.59;5054629;28;20458;-73
2023/01/14 06:48:19;;;;;;;27.25;4.05;;;;;;;4.44;100.00;100830.41;5054704;28;20033;-73
2023/01/14 06:50:44;;;;;;;17.15;3.33;;;;;;;4.43;100.00;100818.16;5054461;28;20468;-74
2023/01/14 06:53:10;;;;;;;15.93;2.88;;;;;;;4.41;100.00;100799.84;5054247;28;20021;-74
2023/01/14 06:55:35;;;;;;;18.60;3.13;;;;;;;4.44;100.00;100794.34;5053205;28;20032;-74
2023/01/14 06:58:01;;;;;;;26.13;3.67;;;;;;;4.44;100.00;100788.25;5054011;28;20112;-74
2023/01/14 07:00:26;;;;;;;28.60;4.95;;;;;;;4.46;100.00;100775.81;5054380;28;20405;-75
2023/01/14 07:02:51;;;;;;;19.95;3.45;;;;;;;4.48;100.00;100769.50;5053404;28;20025;-74
2023/01/14 07:05:17;;;;;;;26.73;3.10;;;;;;;4.48;100.00;100771.28;5054448;28;20036;-75
2023/01/14 07:07:47;;;;;;;17.20;3.70;;;;;;;4.46;100.00;100767.91;5052853;28;20037;-74
2023/01/14 07:10:13;;;;;;;16.17;3.17;;;;;;;4.47;100.00;100764.34;5053990;28;20029;-74
2023/01/14 07:12:38;;;;;;;16.42;3.35;;;;;;;4.48;100.00;100742.28;5054100;28;20033;-75
2023/01/14 07:15:04;;;;;;;23.67;4.05;;;;;;;4.49;100.00;100742.19;5053575;28;20037;-75
2023/01/14 07:17:29;;;;;;;21.27;3.47;;;;;;;4.50;100.00;100732.50;5053917;28;20036;-75
2023/01/14 07:19:54;;;;;;;18.90;3.47;;;;;;;4.51;100.00;100708.69;5054140;28;20040;-76
2023/01/14 07:22:20;;;;;;;16.95;3.67;;;;;;;4.59;100.00;100713.44;5053621;28;20132;-75
2023/01/14 07:24:45;;;;;;;19.77;3.63;;;;;;;4.60;100.00;100680.88;5053665;28;20033;-74
2023/01/14 07:27:11;;;;;;;15.57;3.00;;;;;;;4.62;100.00;100678.97;5053829;28;20033;-74
2023/01/14 07:29:36;;;;;;;11.52;2.67;;;;;;;4.63;100.00;100669.28;5052382;28;20124;-74
2023/01/14 07:32:02;;;;;;;17.20;3.35;;;;;;;4.65;100.00;100672.66;5053591;28;20037;-77
2023/01/14 07:34:27;;;;;;;12.13;3.05;;;;;;;4.69;100.00;100658.34;5053885;28;20369;-75
2023/01/14 07:36:52;;;;;;;15.95;3.45;;;;;;;4.68;100.00;100643.47;5053755;28;20060;-74
2023/01/14 07:39:18;;;;;;;20.83;3.80;;;;;;;4.70;100.00;100641.53;5053554;28;20037;-74
2023/01/14 07:41:43;;;;;;;10.95;3.53;;;;;;;4.78;100.00;100620.78;5053497;28;20057;-74
2023/01/14 07:44:08;;;;;;;16.77;3.30;;;;;;;4.79;100.00;100619.81;5053517;28;20381;-75
2023/01/14 07:46:34;;;;;;;14.55;3.50;;;;;;;4.79;100.00;100621.63;5053317;28;20033;-75
2023/01/14 07:48:59;;;;;;;14.48;3.90;;;;;;;4.81;100.00;100617.94;5053773;28;20047;-75
2023/01/14 07:51:25;;;;;;;16.40;4.60;;;;;;;4.81;100.00;100612.66;5053351;28;20090;-76
2023/01/14 07:53:50;;;;;;;12.38;3.10;;;;;;;4.87;100.00;100592.94;5053304;28;20029;-75
2023/01/14 07:56:16;;;;;;;9.23;3.10;;;;;;;4.91;100.00;100579.44;5053047;28;20036;-75
2023/01/14 07:58:41;;;;;;;7.60;3.00;;;;;;;4.93;100.00;100585.44;5053655;28;20037;-75
2023/01/14 08:01:08;;;;;;;12.00;3.10;;;;;;;4.97;100.00;100574.66;5052805;28;20064;-76
2023/01/14 08:03:34;;;;;;;9.65;2.90;;;;;;;5.00;100.00;100558.63;5053016;28;20033;-76
2023/01/14 08:06:06;;;;;;;10.75;3.22;;;;;;;5.02;100.00;100564.63;5052810;28;20074;-74
2023/01/14 08:08:33;;;;;;;7.55;2.90;;;;;;;5.09;100.00;100560.59;5051428;28;20029;-75
2023/01/14 08:11:00;;;;;;;7.70;3.17;;;;;;;5.15;100.00;100539.06;5052430;28;20063;-76
2023/01/14 08:13:27;;;;;;;10.15;3.20;;;;;;;5.20;100.00;100528.19;5052761;28;20029;-75
2023/01/14 08:15:57;;;;;;;7.70;3.20;;;;;;;5.19;100.00;100523.84;5051647;28;20033;-76
2023/01/14 08:18:22;;;;;;;8.25;2.90;;;;;;;5.28;100.00;100512.63;5053549;28;20037;-73
2023/01/14 08:20:47;;;;;;;7.35;2.95;;;;;;;5.31;100.00;100504.47;5052106;28;20505;-79
2023/01/14 08:23:13;;;;;;;7.80;3.20;;;;;;;5.35;100.00;100508.56;5053340;28;20029;-74
2023/01/14 08:25:38;;;;;;;8.75;3.55;;;;;;;5.37;100.00;100490.00;5052552;28;20032;-75
2023/01/14 08:28:05;;;;;;;13.73;3.00;;;;;;;5.40;100.00;100497.69;5053377;28;20033;-74
2023/01/14 08:30:31;;;;;;;7.00;4.05;;;;;;;5.43;100.00;100474.56;5053001;28;20076;-73
2023/01/14 08:32:57;;;;;;;4.75;3.00;;;;;;;5.43;100.00;100469.28;5052744;28;20028;-77
2023/01/14 08:35:22;;;;;;;8.98;3.20;;;;;;;5.48;100.00;100456.56;5052798;28;20040;-77
2023/01/14 08:37:48;;;;;;;10.77;3.60;;;;;;;5.48;100.00;100446.00;5052893;28;20527;-76
2023/01/14 08:40:13;;;;;;;8.50;3.55;;;;;;;5.54;100.00;100436.81;5052935;28;20075;-77
2023/01/14 08:42:38;;;;;;;7.00;3.30;;;;;;;5.53;100.00;100434.28;5052895;28;20094;-81
2023/01/14 08:45:04;;;;;;;9.57;3.45;;;;;;;5.55;100.00;100421.81;5052790;28;20029;-80
2023/01/14 08:47:30;;;;;;;5.85;2.90;;;;;;;5.59;100.00;100412.69;5052839;28;20048;-77
2023/01/14 08:49:55;;;;;;;5.05;3.20;;;;;;;5.61;100.00;100416.91;5052125;28;20557;-76
2023/01/14 08:52:20;;;;;;;6.47;3.33;;;;;;;5.63;100.00;100401.78;5052608;28;20032;-76
2023/01/14 08:54:46;;;;;;;8.82;3.70;;;;;;;5.65;100.00;100391.94;5018268;28;20044;-77
2023/01/14 08:57:11;;;;;;;12.38;3.85;;;;;;;5.68;100.00;100393.50;5052037;28;20076;-78
2023/01/14 08:59:38;;;;;;;9.75;3.60;;;;;;;5.71;100.00;100384.53;5050786;28;20494;-78
2023/01/14 09:02:04;;;;;;;8.50;3.50;;;;;;;5.74;100.00;100386.91;5052666;28;20135;-78
2023/01/14 09:04:29;;;;;;;9.93;3.40;;;;;;;5.75;100.00;100393.88;5050806;28;20481;-77
2023/01/14 09:17:58;;;;;;;9.40;3.38;;;;;;;5.86;100.00;100335.78;5052898;28;20098;-76
2023/01/14 09:20:28;;;;;;;7.65;3.45;;;;;;;5.87;100.00;100319.00;5051613;28;20447;-79
2023/01/14 09:22:53;;;;;;;11.40;3.10;;;;;;;5.89;100.00;100300.38;5052077;28;20037;-79
2023/01/14 09:25:19;;;;;;;9.95;3.25;;;;;;;5.93;100.00;100301.84;5053367;28;20125;-76
2023/01/14 09:27:44;;;;;;;10.45;3.17;;;;;;;5.95;100.00;100297.25;5055803;28;20092;-77
2023/01/14 09:30:10;;;;;;;7.80;2.72;;;;;;;5.94;100.00;100293.78;5055636;28;20029;-79
2023/01/14 09:32:40;;;;;;;7.82;2.70;;;;;;;5.98;100.00;100271.47;5055858;28;20036;-77
2023/01/14 09:35:06;;;;;;;10.45;2.88;;;;;;;5.99;100.00;100286.34;5055549;28;20118;-76
2023/01/14 09:37:33;;;;;;;9.68;2.63;;;;;;;6.03;100.00;100268.47;5055606;28;20025;-79
2023/01/14 09:39:59;;;;;;;11.43;2.75;;;;;;;6.05;100.00;100263.06;5055840;28;20396;-82
2023/01/14 09:42:31;;;;;;;5.43;2.25;;;;;;;6.06;100.00;100248.88;5055190;28;20037;-81
2023/01/14 09:45:05;;;;;;;9.77;3.03;;;;;;;6.07;100.00;100254.03;5054865;28;20112;-77
2023/01/14 09:47:31;;;;;;;11.13;3.20;;;;;;;6.09;100.00;100233.66;5054343;28;20037;-78
2023/01/14 09:49:56;;;;;;;7.50;2.70;;;;;;;6.12;100.00;100224.59;5054050;28;20086;-79
2023/01/14 09:52:28;;;;;;;6.22;2.33;;;;;;;6.14;100.00;100212.97;5055610;28;20431;-80
2023/01/14 09:55:10;;;;;;;;;;;;;;;6.21;100.00;100210.66;5054518;28;20029;-79
2023/01/14 09:57:38;;;;;;;5.28;2.10;;;;;;;6.19;100.00;100194.09;5056960;28;19960;-79
2023/01/14 10:00:25;;;;;;;7.03;2.25;;;;;;;6.25;100.00;100198.84;5055392;28;20489;-77
2023/01/14 10:03:04;;;;;;;7.22;1.92;;;;;;;6.26;100.00;100182.06;5054965;28;20036;-78
2023/01/14 10:05:33;;;;;;;7.38;2.25;;;;;;;6.31;100.00;100165.81;5054806;28;20021;-80
2023/01/14 10:08:07;;;;;;;6.55;2.22;;;;;;;6.34;100.00;100162.91;5053802;28;20393;-79
2023/01/14 10:10:35;;;;;;;6.50;2.15;;;;;;;6.38;100.00;100152.94;5055082;28;20036;-80
2023/01/14 10:13:06;;;;;;;5.13;2.03;;;;;;;6.40;100.00;100151.81;5055330;28;20057;-83
2023/01/14 10:15:44;;;;;;;5.32;2.28;;;;;;;6.44;100.00;100147.97;5054645;28;20107;-79
2023/01/14 10:18:31;;;;;;;6.38;2.10;;;;;;;6.48;100.00;100120.31;5054903;28;20033;-80
2023/01/14 10:20:59;;;;;;;5.45;1.63;;;;;;;6.51;100.00;100119.22;5054757;28;20101;-80
2023/01/14 10:23:32;;;;;;;5.43;1.88;;;;;;;6.56;100.00;100124.13;5054479;28;20029;-81
2023/01/14 10:26:01;;;;;;;5.35;2.05;;;;;;;6.57;100.00;100112.56;5054095;28;20033;-80
2023/01/14 10:28:29;;;;;;;7.82;2.25;;;;;;;6.61;100.00;100101.59;5054759;28;20491;-80
2023/01/14 10:30:58;;;;;;;5.57;1.73;;;;;;;6.62;100.00;100100.63;5053771;28;20095;-80
2023/01/14 10:33:25;;;;;;;7.60;2.13;;;;;;;6.66;100.00;100088.00;5055438;28;20037;-80
2023/01/14 10:36:02;;;;;;;4.70;1.85;;;;;;;6.67;100.00;100079.94;5055584;28;20436;-81
2023/01/14 10:38:29;;;;;;;4.80;1.75;;;;;;;6.70;100.00;100077.03;5054978;28;20032;-80
2023/01/14 10:41:06;;;;;;;3.83;1.58;;;;;;;6.76;100.00;100049.19;5054634;28;20029;-78
2023/01/14 10:43:35;;;;;;;4.40;1.50;;;;;;;6.79;100.00;100035.75;5054092;28;20029;-80
2023/01/14 10:46:01;;;;;;;5.70;1.83;;;;;;;6.82;100.00;100035.47;5053745;28;20120;-80
2023/01/14 10:48:32;;;;;;;3.65;1.50;;;;;;;6.82;100.00;100031.97;5055053;28;20504;-76
2023/01/14 10:51:32;;;;;;;3.97;1.80;;;;;;;6.87;100.00;100009.44;5053526;28;20036;-81
2023/01/14 10:54:12;;;;;;;9.50;2.20;;;;;;;6.93;100.00;100015.19;5055348;28;20050;-79
2023/01/14 10:56:41;;;;;;;4.68;1.75;;;;;;;6.95;100.00;100016.69;5053967;28;20575;-79
2023/01/14 10:59:30;;;;;;;5.65;1.77;;;;;;;7.01;100.00;100000.28;5054808;28;20033;-79
2023/01/14 11:01:56;;;;;;;6.15;1.63;;;;;;;7.04;100.00;99984.13;5056865;28;20025;-80
2023/01/14 11:04:27;;;;;;;4.82;1.83;;;;;;;7.06;100.00;99986.63;5055450;28;20033;-79
2023/01/14 11:06:52;;;;;;;3.65;1.67;;;;;;;7.11;100.00;99983.59;5055497;28;20374;-81
2023/01/14 11:09:28;;;;;;;8.75;2.20;;;;;;;7.11;100.00;99967.75;5055844;28;20036;-81
2023/01/14 11:11:54;;;;;;;8.73;2.42;;;;;;;7.13;100.00;99966.59;5053814;28;20028;-81
2023/01/14 11:14:31;;;;;;;7.95;2.05;;;;;;;7.16;100.00;99961.03;5057964;28;20041;-79
2023/01/14 11:16:56;;;;;;;5.32;1.85;;;;;;;7.22;100.00;99954.34;5054782;28;20033;-80
2023/01/14 11:19:23;;;;;;;3.38;1.83;;;;;;;7.24;100.00;99947.97;5054685;28;20048;-82
2023/01/14 11:21:55;;;;;;;8.35;2.22;;;;;;;7.26;100.00;99955.75;5054810;28;20071;-79
2023/01/14 11:24:39;;;;;;;4.25;2.00;;;;;;;7.26;100.00;99947.81;5054505;28;20190;-78
2023/01/14 11:27:19;;;;;;;7.57;2.22;;;;;;;7.30;100.00;99937.78;5055203;28;20450;-78
2023/01/14 11:29:54;;;;;;;6.22;2.40;;;;;;;7.30;100.00;99925.41;5060468;28;20108;-78
2023/01/14 11:32:24;;;;;;;3.92;2.30;;;;;;;7.32;100.00;99918.16;5062864;28;20033;-78
2023/01/14 11:34:56;;;;;;;7.70;3.00;;;;;;;7.36;100.00;99908.97;5060459;28;20033;-80
2023/01/14 11:37:25;;;;;;;11.55;4.03;;;;;;;7.35;100.00;99886.09;5035981;28;20024;-77
2023/01/14 11:39:54;;;;;;;7.13;2.63;;;;;;;7.40;100.00;99894.47;5054243;28;20363;-77
2023/01/14 11:42:22;;;;;;;8.32;3.83;;;;;;;7.41;100.00;99892.66;5053253;28;20445;-78
2023/01/14 11:45:07;;;;;;;7.97;3.78;;;;;;;7.45;100.00;99880.81;5054185;28;20449;-77
2023/01/14 11:47:54;;;;;;;8.13;4.40;;;;;;;7.50;100.00;99869.78;5053276;28;20025;-76
2023/01/14 11:50:25;;;;;;;6.95;3.83;;;;;;;7.51;100.00;99871.44;5054291;28;20027;-77
2023/01/14 11:52:53;;;;;;;10.82;2.67;;;;;;;7.52;100.00;99873.94;5053387;28;20021;-78
2023/01/14 11:55:19;;;;;;;13.35;5.65;;;;;;;7.52;100.00;99867.81;5053272;28;20025;-82